Contact Us:
Email: info@sawbill.com
Phone: (218)663-7150
Fax: (218)663-7980
Mail: 4620 Sawbill Trail
Box 2129
Tofte, MN 55615


Powered by
Movable Type 3.15
 
Sawbill Weather History Archives: November 2011
Current Sawbill Weather History | « October 2011 | December 2011 »


Date

High
Temperature

Low
Temperature

Barometric
Pressure

Relative
Humidity 7AM

9 AM
Temperature

Moisture

Snow

11/30/11 29 13 30.36 59% 13 0
11/29/11 26 9 29.94 77% 17 0
11/28/11 32 15 30.33 63% 16 Trace Trace
11/27/11 23 19 30.00 91% 23 0
11/26/11 33 22 30.09 80% 22 .14" 1.5"
11/25/11 39 32 29.88 91% 32 .44" 2.5"
11/24/11 47 32 29.83 84% 33 0
11/23/11 44 29 29.85 98% 32 0
11/22/11 33 27 30.03 92% 29 Trace Trace
11/21/11 27 10 30.18 95% 27 Trace Trace
11/20/11 26 3 30.27 56% 10 0
11/19/11 26 6 30.30 56% 8 0
11/18/11 28 26 29.91 78% 25 .15" 1.5"
11/17/11 23 11 29.85 78% 20 .12" 1.5"
11/16/11 26 19 29.72 86% 22 Trace Trace
11/15/11 37 26 29.72 86% 26 0
11/14/11 44 30 29.65 62% 32 0
11/13/11 42 29 29.44 85% 32 Trace Trace
11/12/11 42 28 29.29 55% 41 0
11/11/11 35 27 29.65 84% 28 0
11/10/11 33 21 29.68 63% 26 .14" 1.5"
11/9/11 35 25 29.91 87% 32 .1" 1"
11/8/11 39 24 30.12 76% 25 0
11/7/11 36 26 30.21 70% 26 0
11/6/11 47 34 29.88 51% 34 Trace
11/5/11 45 34 29.90 86% 44 Trace
11/4/11 45 33 29.92 88% 34 0
11/3/11 45 23 30.03 74% 34 0
11/2/11 43 28 30.02 74% 29 Trace Trace
11/1/11 46 36 29.90 83% 36 Trace
 


Home I Trip Planning I Rentals and Outfitting I Reservations I Campgrounds I Sawbill Store I Sawbill News I Contact

© 1997 - 2017, Sawbill Canoe Outfitters, Inc. I Privacy Policy